createdAt,value
2024-02-29T00:00:46.289Z,3.25
2024-02-29T00:01:45.450Z,3.20
2024-02-29T00:02:45.302Z,3.18
2024-02-29T00:03:45.323Z,3.27
2024-02-29T00:04:45.378Z,3.30
2024-02-29T00:05:45.280Z,3.33
2024-02-29T00:06:45.283Z,3.28
2024-02-29T00:07:45.273Z,3.27
2024-02-29T00:08:45.290Z,3.12
2024-02-29T00:09:45.301Z,3.06
2024-02-29T00:10:45.304Z,3.00
2024-02-29T00:11:45.271Z,3.05
2024-02-29T00:12:45.271Z,3.02
2024-02-29T00:13:45.268Z,3.07
2024-02-29T00:14:45.259Z,3.16
2024-02-29T00:15:45.271Z,3.23
2024-02-29T00:16:45.254Z,3.21
2024-02-29T00:17:45.258Z,3.03
2024-02-29T00:18:45.280Z,3.13
2024-02-29T00:19:45.195Z,3.16
2024-02-29T00:20:45.218Z,3.16
2024-02-29T00:21:45.209Z,3.30
2024-02-29T00:22:45.218Z,3.30
2024-02-29T00:23:45.196Z,3.06
2024-02-29T00:24:45.197Z,3.30
2024-02-29T00:25:45.172Z,3.30
2024-02-29T00:26:45.265Z,3.30
2024-02-29T00:27:45.194Z,3.21
2024-02-29T00:28:45.144Z,3.16
2024-02-29T00:29:45.136Z,3.06
2024-02-29T00:30:45.202Z,2.97
2024-02-29T00:31:45.141Z,3.15
2024-02-29T00:32:45.174Z,3.10
2024-02-29T00:33:45.180Z,3.10
2024-02-29T00:34:45.088Z,3.06
2024-02-29T00:35:49.335Z,3.05
2024-02-29T00:36:46.248Z,3.15
2024-02-29T00:37:45.098Z,3.12
2024-02-29T00:38:45.084Z,3.06
2024-02-29T00:39:45.094Z,2.94
2024-02-29T00:40:45.150Z,2.87
2024-02-29T00:41:45.110Z,2.88
2024-02-29T00:42:45.091Z,2.91
2024-02-29T00:43:45.063Z,2.94
2024-02-29T00:44:45.084Z,3.05
2024-02-29T00:45:45.128Z,2.97
2024-02-29T00:46:45.115Z,3.00
2024-02-29T00:47:45.041Z,3.02
2024-02-29T00:48:45.040Z,3.00
2024-02-29T00:49:45.019Z,2.98
2024-02-29T00:50:45.008Z,2.81
2024-02-29T00:51:45.108Z,2.89
2024-02-29T00:52:44.979Z,2.97
2024-02-29T00:53:44.995Z,3.07
2024-02-29T00:54:45.015Z,3.15
2024-02-29T00:55:44.967Z,3.13
2024-02-29T00:56:44.988Z,3.25
2024-02-29T00:57:44.988Z,3.21
2024-02-29T00:58:44.957Z,3.13
2024-02-29T00:59:44.942Z,3.12
2024-02-29T01:00:45.078Z,3.02
2024-02-29T01:01:45.091Z,2.95
2024-02-29T01:02:44.976Z,2.89
2024-02-29T01:03:44.929Z,2.89
2024-02-29T01:04:44.919Z,2.79
2024-02-29T01:05:44.925Z,2.73
2024-02-29T01:06:44.933Z,2.76
2024-02-29T01:07:45.078Z,2.76
2024-02-29T01:08:44.904Z,2.58
2024-02-29T01:09:44.936Z,2.63
2024-02-29T01:10:44.934Z,2.63
2024-02-29T01:11:44.894Z,2.74
2024-02-29T01:12:44.984Z,2.82
2024-02-29T01:13:44.867Z,2.81
2024-02-29T01:14:44.865Z,2.84
2024-02-29T01:15:44.923Z,2.84
2024-02-29T01:16:44.864Z,2.87
2024-02-29T01:17:44.838Z,2.87
2024-02-29T01:18:44.847Z,2.88
2024-02-29T01:19:44.857Z,2.79
2024-02-29T01:20:44.826Z,2.88
2024-02-29T01:21:44.841Z,2.87
2024-02-29T01:22:44.827Z,2.87
2024-02-29T01:23:44.803Z,2.84
2024-02-29T01:24:44.835Z,2.76
2024-02-29T01:25:45.796Z,2.88
2024-02-29T01:26:44.788Z,2.94
2024-02-29T01:27:44.869Z,2.88
2024-02-29T01:28:44.815Z,2.88
2024-02-29T01:29:44.778Z,2.98
2024-02-29T01:30:44.859Z,2.82
2024-02-29T01:31:44.767Z,2.81
2024-02-29T01:32:44.762Z,2.76
2024-02-29T01:33:44.754Z,2.87
2024-02-29T01:34:44.722Z,2.85
2024-02-29T01:35:44.716Z,2.69
2024-02-29T01:36:44.747Z,2.67
2024-02-29T01:37:44.720Z,2.58
2024-02-29T01:38:44.690Z,2.61
2024-02-29T01:39:44.775Z,2.64
2024-02-29T01:40:44.711Z,2.76
2024-02-29T01:41:44.668Z,2.84
2024-02-29T01:42:44.755Z,2.82
2024-02-29T01:43:44.658Z,2.91
2024-02-29T01:44:44.740Z,2.89
2024-02-29T01:45:44.732Z,2.85
2024-02-29T01:46:44.688Z,2.85
2024-02-29T01:47:44.683Z,2.94
2024-02-29T01:48:44.628Z,2.63
2024-02-29T01:49:44.639Z,2.67
2024-02-29T01:50:44.661Z,2.51
2024-02-29T01:51:44.648Z,2.55
2024-02-29T01:52:44.627Z,2.53
2024-02-29T01:53:44.601Z,2.63
2024-02-29T01:54:45.630Z,2.59
2024-02-29T01:55:44.608Z,2.53
2024-02-29T01:56:44.614Z,2.52
2024-02-29T01:57:44.621Z,2.48
2024-02-29T01:58:44.569Z,2.44
2024-02-29T01:59:44.569Z,2.53
2024-02-29T02:00:44.609Z,2.51
2024-02-29T02:01:44.669Z,2.51
2024-02-29T02:02:44.542Z,2.53
2024-02-29T02:03:44.610Z,2.63
2024-02-29T02:04:44.583Z,2.53
2024-02-29T02:05:44.531Z,2.77
2024-02-29T02:06:44.524Z,2.74
2024-02-29T02:07:44.543Z,2.73
2024-02-29T02:08:44.511Z,2.67
2024-02-29T02:09:44.519Z,2.73
2024-02-29T02:10:44.609Z,2.69
2024-02-29T02:11:44.540Z,2.71
2024-02-29T02:12:44.808Z,2.73
2024-02-29T02:13:44.507Z,2.64
2024-02-29T02:14:44.485Z,2.67
2024-02-29T02:15:44.510Z,2.67
2024-02-29T02:16:44.463Z,2.81
2024-02-29T02:17:44.484Z,2.77
2024-02-29T02:18:44.519Z,2.82
2024-02-29T02:19:44.468Z,2.81
2024-02-29T02:20:44.466Z,2.69
2024-02-29T02:21:44.476Z,2.69
2024-02-29T02:22:44.414Z,2.66
2024-02-29T02:23:44.435Z,2.67
2024-02-29T02:24:44.442Z,2.56
2024-02-29T02:25:44.410Z,2.48
2024-02-29T02:26:44.412Z,2.51
2024-02-29T02:27:44.482Z,2.66
2024-02-29T02:28:44.438Z,2.64
2024-02-29T02:29:44.489Z,2.56
2024-02-29T02:30:44.384Z,2.64
2024-02-29T02:31:44.401Z,2.69
2024-02-29T02:32:44.425Z,2.53
2024-02-29T02:33:44.444Z,2.59
2024-02-29T02:34:44.396Z,2.66
2024-02-29T02:35:44.361Z,2.49
2024-02-29T02:36:44.372Z,2.56
2024-02-29T02:37:44.368Z,2.38
2024-02-29T02:38:44.360Z,2.48
2024-02-29T02:39:44.395Z,2.46
2024-02-29T02:40:44.336Z,2.33
2024-02-29T02:41:44.331Z,2.33
2024-02-29T02:42:45.399Z,2.30
2024-02-29T02:43:44.330Z,2.37
2024-02-29T02:44:44.341Z,2.33
2024-02-29T02:45:44.337Z,2.22
2024-02-29T02:46:44.272Z,2.16
2024-02-29T02:47:44.329Z,2.17
2024-02-29T02:48:44.297Z,2.15
2024-02-29T02:49:44.261Z,2.15
2024-02-29T02:50:44.512Z,2.04
2024-02-29T02:51:44.316Z,2.10
2024-02-29T02:52:44.277Z,2.12
2024-02-29T02:53:44.273Z,2.15
2024-02-29T02:54:44.280Z,2.28
2024-02-29T02:55:44.253Z,2.20
2024-02-29T02:56:44.279Z,2.27
2024-02-29T02:57:44.231Z,2.27
2024-02-29T02:58:44.246Z,2.31
2024-02-29T02:59:44.244Z,2.30
2024-02-29T03:00:44.272Z,2.31
2024-02-29T03:01:44.302Z,2.37
2024-02-29T03:02:44.220Z,2.35
2024-02-29T03:03:44.213Z,2.27
2024-02-29T03:04:44.204Z,2.22
2024-02-29T03:05:44.178Z,2.16
2024-02-29T03:06:45.253Z,2.06
2024-02-29T03:07:44.197Z,1.91
2024-02-29T03:08:44.168Z,1.94
2024-02-29T03:09:44.241Z,1.76
2024-02-29T03:10:44.190Z,1.76
2024-02-29T03:11:44.174Z,1.75
2024-02-29T03:12:44.170Z,1.93
2024-02-29T03:13:44.179Z,2.06
2024-02-29T03:14:44.155Z,2.04
2024-02-29T03:15:44.203Z,2.09
2024-02-29T03:16:44.151Z,2.04
2024-02-29T03:17:44.144Z,2.08
2024-02-29T03:18:44.159Z,2.09
2024-02-29T03:19:44.112Z,2.04
2024-02-29T03:20:44.195Z,1.91
2024-02-29T03:21:44.170Z,2.06
2024-02-29T03:22:44.104Z,2.12
2024-02-29T03:23:44.131Z,2.02
2024-02-29T03:24:44.119Z,2.12
2024-02-29T03:25:45.080Z,2.09
2024-02-29T03:26:44.084Z,1.80
2024-02-29T03:27:44.121Z,1.99
2024-02-29T03:28:44.079Z,1.99
2024-02-29T03:29:44.072Z,2.09
2024-02-29T03:30:44.060Z,2.04
2024-02-29T03:31:44.052Z,1.89
2024-02-29T03:32:44.095Z,2.01
2024-02-29T03:33:44.117Z,1.98
2024-02-29T03:34:44.046Z,2.01
2024-02-29T03:35:44.069Z,2.09
2024-02-29T03:36:44.097Z,2.08
2024-02-29T03:37:44.012Z,2.01
2024-02-29T03:38:44.026Z,2.02
2024-02-29T03:39:44.036Z,2.02
2024-02-29T03:40:44.000Z,1.93
2024-02-29T03:41:44.001Z,1.97
2024-02-29T03:42:44.073Z,2.04
2024-02-29T03:43:43.995Z,2.01
2024-02-29T03:44:44.015Z,2.04
2024-02-29T03:45:44.004Z,2.08
2024-02-29T03:46:43.976Z,1.93
2024-02-29T03:47:44.015Z,2.04
2024-02-29T03:48:43.973Z,2.08
2024-02-29T03:49:43.987Z,2.10
2024-02-29T03:50:43.958Z,2.19
2024-02-29T03:51:44.002Z,2.08
2024-02-29T03:52:43.951Z,2.13
2024-02-29T03:53:43.932Z,2.06
2024-02-29T03:54:43.942Z,2.02
2024-02-29T03:55:44.776Z,2.04
2024-02-29T03:56:43.928Z,1.90
2024-02-29T03:57:43.911Z,1.90
2024-02-29T03:58:43.910Z,1.83
2024-02-29T03:59:43.895Z,1.85
2024-02-29T04:00:43.902Z,1.87
2024-02-29T04:01:44.030Z,1.61
2024-02-29T04:02:43.877Z,1.79
2024-02-29T04:03:43.933Z,1.71
2024-02-29T04:04:43.868Z,1.69
2024-02-29T04:05:43.901Z,1.55
2024-02-29T04:06:43.945Z,1.75
2024-02-29T04:07:43.923Z,1.82
2024-02-29T04:08:43.865Z,1.71
2024-02-29T04:09:43.901Z,1.65
2024-02-29T04:10:43.881Z,1.62
2024-02-29T04:11:43.827Z,1.64
2024-02-29T04:12:43.845Z,1.72
2024-02-29T04:13:43.827Z,1.79
2024-02-29T04:14:43.826Z,1.75
2024-02-29T04:15:44.782Z,1.82
2024-02-29T04:16:43.830Z,1.83
2024-02-29T04:17:43.843Z,1.79
2024-02-29T04:18:43.807Z,1.82
2024-02-29T04:19:43.770Z,1.71
2024-02-29T04:20:43.788Z,1.60
2024-02-29T04:21:43.876Z,1.73
2024-02-29T04:22:43.790Z,1.64
2024-02-29T04:23:43.817Z,1.58
2024-02-29T04:24:43.922Z,1.61
2024-02-29T04:25:43.772Z,1.46
2024-02-29T04:26:43.758Z,1.44
2024-02-29T04:27:43.761Z,1.34
2024-02-29T04:28:43.736Z,1.34
2024-02-29T04:29:43.747Z,1.52
2024-02-29T04:30:43.903Z,1.40
2024-02-29T04:31:43.746Z,1.54
2024-02-29T04:32:43.777Z,1.36
2024-02-29T04:33:43.727Z,1.40
2024-02-29T04:34:43.685Z,1.43
2024-02-29T04:35:43.710Z,1.50
2024-02-29T04:36:43.778Z,1.55
2024-02-29T04:37:43.684Z,1.64
2024-02-29T04:38:43.686Z,1.80
2024-02-29T04:39:43.698Z,1.91
2024-02-29T04:40:43.676Z,1.78
2024-02-29T04:41:43.695Z,1.65
2024-02-29T04:42:43.675Z,1.52
2024-02-29T04:43:43.618Z,1.60
2024-02-29T04:44:44.628Z,1.68
2024-02-29T04:45:43.662Z,1.62
2024-02-29T04:46:43.679Z,1.64
2024-02-29T04:47:43.649Z,1.60
2024-02-29T04:48:43.733Z,1.65
2024-02-29T04:49:43.616Z,1.64
2024-02-29T04:50:43.608Z,1.58
2024-02-29T04:51:43.691Z,1.55
2024-02-29T04:52:43.618Z,1.54
2024-02-29T04:53:43.609Z,1.37
2024-02-29T04:54:43.645Z,1.44
2024-02-29T04:55:43.578Z,1.54
2024-02-29T04:56:43.569Z,1.46
2024-02-29T04:57:43.607Z,1.43
2024-02-29T04:58:43.634Z,1.43
2024-02-29T04:59:43.554Z,1.40
2024-02-29T05:00:43.672Z,1.47
2024-02-29T05:01:43.641Z,1.69
2024-02-29T05:02:43.548Z,1.71
2024-02-29T05:03:43.588Z,1.60
2024-02-29T05:04:43.528Z,1.51
2024-02-29T05:05:43.528Z,1.58
2024-02-29T05:06:43.562Z,1.60
2024-02-29T05:07:43.543Z,1.61
2024-02-29T05:08:43.561Z,1.75
2024-02-29T05:09:43.555Z,1.68
2024-02-29T05:10:43.539Z,1.64
2024-02-29T05:11:43.479Z,1.62
2024-02-29T05:12:43.504Z,1.55
2024-02-29T05:13:43.497Z,1.43
2024-02-29T05:14:43.551Z,1.39
2024-02-29T05:15:43.529Z,1.50
2024-02-29T05:16:43.487Z,1.40
2024-02-29T05:17:43.502Z,1.47
2024-02-29T05:18:43.531Z,1.50
2024-02-29T05:19:43.495Z,1.69
2024-02-29T05:20:43.532Z,1.61
2024-02-29T05:21:43.486Z,1.64
2024-02-29T05:22:43.437Z,1.61
2024-02-29T05:23:43.466Z,1.57
2024-02-29T05:24:43.494Z,1.83
2024-02-29T05:25:43.464Z,1.68
2024-02-29T05:26:43.760Z,1.71
2024-02-29T05:27:43.447Z,1.79
2024-02-29T05:28:43.427Z,1.75
2024-02-29T05:29:44.265Z,1.64
2024-02-29T05:30:43.462Z,1.71
2024-02-29T05:31:43.439Z,1.62
2024-02-29T05:32:43.448Z,1.58
2024-02-29T05:33:43.498Z,1.57
2024-02-29T05:34:43.386Z,1.55
2024-02-29T05:35:43.391Z,1.50
2024-02-29T05:36:43.497Z,1.29
2024-02-29T05:37:43.371Z,1.29
2024-02-29T05:38:43.379Z,1.47
2024-02-29T05:39:43.492Z,1.40
2024-02-29T05:40:43.368Z,1.58
2024-02-29T05:41:43.342Z,1.42
2024-02-29T05:42:43.420Z,1.42
2024-02-29T05:43:43.356Z,1.42
2024-02-29T05:44:43.381Z,1.47
2024-02-29T05:45:43.383Z,1.33
2024-02-29T05:46:43.336Z,1.42
2024-02-29T05:47:43.375Z,1.32
2024-02-29T05:48:43.455Z,1.39
2024-02-29T05:49:43.344Z,1.34
2024-02-29T05:50:43.340Z,1.32
2024-02-29T05:51:43.418Z,1.28
2024-02-29T05:52:43.356Z,1.36
2024-02-29T05:53:43.376Z,1.29
2024-02-29T05:54:43.347Z,1.40
2024-02-29T05:55:43.436Z,1.51
2024-02-29T05:56:43.288Z,1.51
2024-02-29T05:57:43.556Z,1.61
2024-02-29T05:58:43.276Z,1.75
2024-02-29T05:59:43.295Z,1.68
2024-02-29T06:00:43.344Z,1.71
2024-02-29T06:01:43.353Z,1.57
2024-02-29T06:02:43.312Z,1.57
2024-02-29T06:03:43.374Z,1.58
2024-02-29T06:04:43.256Z,1.61
2024-02-29T06:05:43.249Z,1.46
2024-02-29T06:06:43.250Z,1.36
2024-02-29T06:07:43.238Z,1.39
2024-02-29T06:08:43.215Z,1.37
2024-02-29T06:09:43.237Z,1.42
2024-02-29T06:10:43.228Z,1.52
2024-02-29T06:11:43.190Z,1.46
2024-02-29T06:12:43.242Z,1.28
2024-02-29T06:13:43.236Z,1.32
2024-02-29T06:14:43.208Z,1.32
2024-02-29T06:15:43.444Z,1.55
2024-02-29T06:16:43.185Z,1.47
2024-02-29T06:17:43.207Z,1.39
2024-02-29T06:18:43.186Z,1.25
2024-02-29T06:19:43.142Z,1.46
2024-02-29T06:20:43.263Z,1.51
2024-02-29T06:21:43.188Z,1.52
2024-02-29T06:22:43.153Z,1.52
2024-02-29T06:23:43.250Z,1.54
2024-02-29T06:24:43.124Z,1.62
2024-02-29T06:25:43.132Z,1.62
2024-02-29T06:26:43.136Z,1.60
2024-02-29T06:27:43.123Z,1.62
2024-02-29T06:28:43.112Z,1.82
2024-02-29T06:29:43.119Z,1.75
2024-02-29T06:30:43.184Z,1.90
2024-02-29T06:31:43.125Z,1.90
2024-02-29T06:32:43.129Z,2.12
2024-02-29T06:33:43.132Z,2.04
2024-02-29T06:34:43.092Z,2.12
2024-02-29T06:35:43.102Z,2.08
2024-02-29T06:36:43.126Z,2.17
2024-02-29T06:37:43.076Z,2.09
2024-02-29T06:38:43.078Z,2.27
2024-02-29T06:39:43.120Z,2.26
2024-02-29T06:40:43.117Z,2.27
2024-02-29T06:41:43.087Z,2.35
2024-02-29T06:42:43.173Z,2.30
2024-02-29T06:43:43.048Z,2.37
2024-02-29T06:44:44.033Z,2.37
2024-02-29T06:45:43.051Z,2.19
2024-02-29T06:46:43.064Z,2.33
2024-02-29T06:47:43.779Z,2.31
2024-02-29T06:48:43.035Z,2.23
2024-02-29T06:49:42.982Z,2.40
2024-02-29T06:50:43.049Z,2.37
2024-02-29T06:51:43.018Z,2.09
2024-02-29T06:52:42.953Z,2.12
2024-02-29T06:53:42.974Z,2.16
2024-02-29T06:54:43.015Z,2.01
2024-02-29T06:55:42.966Z,2.13
2024-02-29T06:56:42.966Z,2.15
2024-02-29T06:57:42.957Z,2.17
2024-02-29T06:58:42.942Z,2.28
2024-02-29T06:59:42.943Z,2.49
2024-02-29T07:00:42.989Z,2.55
2024-02-29T07:01:43.001Z,2.61
2024-02-29T07:02:42.931Z,2.64
2024-02-29T07:03:42.968Z,2.67
2024-02-29T07:04:42.943Z,2.76
2024-02-29T07:05:42.938Z,2.88
2024-02-29T07:06:43.112Z,2.84
2024-02-29T07:07:42.929Z,2.97
2024-02-29T07:08:42.948Z,2.89
2024-02-29T07:09:42.893Z,2.91
2024-02-29T07:10:42.886Z,3.03
2024-02-29T07:11:43.020Z,3.15
2024-02-29T07:12:42.918Z,3.05
2024-02-29T07:13:42.881Z,3.36
2024-02-29T07:14:42.886Z,3.49
2024-02-29T07:15:42.899Z,3.43
2024-02-29T07:16:42.842Z,3.54
2024-02-29T07:17:42.857Z,3.65
2024-02-29T07:18:42.964Z,3.85
2024-02-29T07:19:42.835Z,3.97
2024-02-29T07:20:42.913Z,4.57
2024-02-29T07:21:42.823Z,5.30
2024-02-29T07:22:42.876Z,5.85
2024-02-29T07:23:42.785Z,6.11
2024-02-29T07:24:42.819Z,6.56
2024-02-29T07:25:42.790Z,6.81
2024-02-29T07:26:42.857Z,7.02
2024-02-29T07:27:42.816Z,7.27
2024-02-29T07:28:42.783Z,7.53
2024-02-29T07:29:42.766Z,7.47
2024-02-29T07:30:42.807Z,7.59
2024-02-29T07:31:42.774Z,7.62
2024-02-29T07:32:42.806Z,7.74
2024-02-29T07:33:42.846Z,8.11
2024-02-29T07:34:42.799Z,7.74
2024-02-29T07:35:42.774Z,7.81
2024-02-29T07:36:42.810Z,7.99
2024-02-29T07:37:42.789Z,7.99
2024-02-29T07:38:42.751Z,8.14
2024-02-29T07:39:42.750Z,8.21
2024-02-29T07:40:42.756Z,8.37
2024-02-29T07:41:42.709Z,8.25
2024-02-29T07:42:42.790Z,8.10
2024-02-29T07:43:42.693Z,7.96
2024-02-29T07:44:42.704Z,7.84
2024-02-29T07:45:42.730Z,7.81
2024-02-29T07:46:42.681Z,8.14
2024-02-29T07:47:42.714Z,8.32
2024-02-29T07:48:42.682Z,8.35
2024-02-29T07:49:42.633Z,8.40
2024-02-29T07:50:42.658Z,8.20
2024-02-29T07:51:42.719Z,8.48
2024-02-29T07:52:42.699Z,8.58
2024-02-29T07:53:42.637Z,8.99
2024-02-29T07:54:42.661Z,9.45
2024-02-29T07:55:42.647Z,9.71
2024-02-29T07:56:42.679Z,10.12
2024-02-29T07:57:42.647Z,10.19
2024-02-29T07:58:42.602Z,10.30
2024-02-29T07:59:42.594Z,10.84
2024-02-29T08:00:42.627Z,11.32
2024-02-29T08:01:42.605Z,11.67
2024-02-29T08:02:42.574Z,11.90
2024-02-29T08:03:42.601Z,12.27
2024-02-29T08:04:42.621Z,12.48
2024-02-29T08:05:42.559Z,12.67
2024-02-29T08:06:42.556Z,12.99
2024-02-29T08:07:42.567Z,13.36
2024-02-29T08:08:42.537Z,13.83
2024-02-29T08:09:42.591Z,14.01
2024-02-29T08:10:42.533Z,14.39
2024-02-29T08:11:42.597Z,14.67
2024-02-29T08:12:42.575Z,15.15
2024-02-29T08:13:42.534Z,15.26
2024-02-29T08:14:42.513Z,15.19
2024-02-29T08:15:42.547Z,15.39
2024-02-29T08:16:42.521Z,15.75
2024-02-29T08:17:42.505Z,15.78
2024-02-29T08:18:43.168Z,16.09
2024-02-29T08:19:42.513Z,16.41
2024-02-29T08:20:42.541Z,16.63
2024-02-29T08:21:42.490Z,16.53
2024-02-29T08:22:42.487Z,16.56
2024-02-29T08:23:42.524Z,16.25
2024-02-29T08:24:42.533Z,16.25
2024-02-29T08:25:42.466Z,16.38
2024-02-29T08:26:42.437Z,16.42
2024-02-29T08:27:42.540Z,16.73
2024-02-29T08:28:42.539Z,16.71
2024-02-29T08:29:42.495Z,16.86
2024-02-29T08:30:42.476Z,16.73
2024-02-29T08:31:42.571Z,16.44
2024-02-29T08:32:42.506Z,16.73
2024-02-29T08:33:42.538Z,16.85
2024-02-29T08:34:42.515Z,17.15
2024-02-29T08:35:42.399Z,17.25
2024-02-29T08:36:42.428Z,17.18
2024-02-29T08:37:42.372Z,16.85
2024-02-29T08:38:42.366Z,16.59
2024-02-29T08:39:42.694Z,16.68
2024-02-29T08:40:42.551Z,17.07
2024-02-29T08:41:42.359Z,17.59
2024-02-29T08:42:42.403Z,18.06
2024-02-29T08:43:42.340Z,18.21
2024-02-29T08:44:42.346Z,17.78
2024-02-29T08:45:42.379Z,17.76
2024-02-29T08:46:42.321Z,18.02
2024-02-29T08:47:42.440Z,18.06
2024-02-29T08:48:42.346Z,18.21
2024-02-29T08:49:42.304Z,18.54
2024-02-29T08:50:42.334Z,18.02
2024-02-29T08:51:42.390Z,17.78
2024-02-29T08:52:42.286Z,18.28
2024-02-29T08:53:42.282Z,18.90
2024-02-29T08:54:42.275Z,19.33
2024-02-29T08:55:42.285Z,19.61
2024-02-29T08:56:42.264Z,19.87
2024-02-29T08:57:42.289Z,19.33
2024-02-29T08:58:42.243Z,19.31
2024-02-29T08:59:42.229Z,18.94
2024-02-29T09:00:42.295Z,18.84
2024-02-29T09:01:42.313Z,19.46
2024-02-29T09:02:42.232Z,20.00
2024-02-29T09:03:42.214Z,20.43
2024-02-29T09:04:42.244Z,20.24
2024-02-29T09:05:42.194Z,19.35
2024-02-29T09:06:42.443Z,19.55
2024-02-29T09:07:42.229Z,19.91
2024-02-29T09:08:42.186Z,20.25
2024-02-29T09:09:42.213Z,20.25
2024-02-29T09:10:42.167Z,19.13
2024-02-29T09:11:42.180Z,18.57
2024-02-29T09:12:42.254Z,18.59
2024-02-29T09:13:43.264Z,19.15
2024-02-29T09:14:42.191Z,19.08
2024-02-29T09:15:42.183Z,19.20
2024-02-29T09:16:42.122Z,19.80
2024-02-29T09:17:42.159Z,20.25
2024-02-29T09:18:42.159Z,20.20
2024-02-29T09:19:42.106Z,20.03
2024-02-29T09:20:42.103Z,20.41
2024-02-29T09:21:42.117Z,20.47
2024-02-29T09:22:42.105Z,20.81
2024-02-29T09:23:42.153Z,20.58
2024-02-29T09:24:42.127Z,21.16
2024-02-29T09:25:42.081Z,20.68
2024-02-29T09:26:42.077Z,20.43
2024-02-29T09:27:42.076Z,20.93
2024-02-29T09:28:42.118Z,21.24
2024-02-29T09:29:42.067Z,21.45
2024-02-29T09:30:42.095Z,21.56
2024-02-29T09:31:42.039Z,21.32
2024-02-29T09:32:42.051Z,20.96
2024-02-29T09:33:42.169Z,20.84
2024-02-29T09:34:46.068Z,19.60
2024-02-29T09:35:44.054Z,18.50
2024-02-29T09:36:42.005Z,17.91
2024-02-29T09:37:41.997Z,18.18
2024-02-29T09:38:41.996Z,18.74
2024-02-29T09:39:42.069Z,18.95
2024-02-29T09:40:49.199Z,19.38
2024-02-29T09:41:59.636Z,19.18
2024-02-29T09:42:42.986Z,19.15
2024-02-29T09:43:41.970Z,19.21
2024-02-29T09:44:41.962Z,20.08
2024-02-29T09:45:41.980Z,20.89
2024-02-29T09:46:41.963Z,20.58
2024-02-29T09:47:42.970Z,18.84
2024-02-29T09:48:41.928Z,18.52
2024-02-29T09:49:42.325Z,18.33
2024-02-29T09:50:42.946Z,18.54
2024-02-29T09:51:41.964Z,18.24
2024-02-29T09:52:41.905Z,18.15
2024-02-29T09:53:41.903Z,16.40
2024-02-29T09:54:41.935Z,16.15
2024-02-29T09:55:41.919Z,16.56
2024-02-29T09:56:41.908Z,15.88
2024-02-29T09:57:41.923Z,16.41
2024-02-29T09:58:41.845Z,16.22
2024-02-29T09:59:41.911Z,17.30
2024-02-29T10:00:41.946Z,18.37
2024-02-29T10:01:42.001Z,18.54
2024-02-29T10:02:41.849Z,17.85
2024-02-29T10:03:41.852Z,18.40
2024-02-29T10:04:41.822Z,18.64
2024-02-29T10:05:41.846Z,18.54
2024-02-29T10:06:41.863Z,18.24
2024-02-29T10:07:41.830Z,16.96
2024-02-29T10:08:41.805Z,17.55
2024-02-29T10:09:41.824Z,17.91
2024-02-29T10:10:41.808Z,18.79
2024-02-29T10:11:42.805Z,19.33
2024-02-29T10:12:41.783Z,19.75
2024-02-29T10:13:41.807Z,19.50
2024-02-29T10:14:41.748Z,19.90
2024-02-29T10:15:41.792Z,20.10
2024-02-29T10:16:42.768Z,20.08
2024-02-29T10:17:41.798Z,20.89
2024-02-29T10:18:41.742Z,21.01
2024-02-29T10:19:41.739Z,20.02
2024-02-29T10:20:41.733Z,20.23
2024-02-29T10:21:41.724Z,19.58
2024-02-29T10:22:41.722Z,20.10
2024-02-29T10:23:41.724Z,20.93
2024-02-29T10:24:41.710Z,20.35
2024-02-29T10:25:41.672Z,19.66
2024-02-29T10:26:41.691Z,19.40
2024-02-29T10:27:41.932Z,19.88
2024-02-29T10:28:41.692Z,20.21
2024-02-29T10:29:41.687Z,19.50
2024-02-29T10:30:41.741Z,20.02
2024-02-29T10:31:41.632Z,20.27
2024-02-29T10:32:41.672Z,20.53
2024-02-29T10:33:41.673Z,20.96
2024-02-29T10:34:41.641Z,18.73
2024-02-29T10:35:41.623Z,18.61
2024-02-29T10:36:41.771Z,18.28
2024-02-29T10:37:41.605Z,18.06
2024-02-29T10:38:41.594Z,17.50
2024-02-29T10:39:41.629Z,17.88
2024-02-29T10:40:41.577Z,18.22
2024-02-29T10:41:41.605Z,18.46
2024-02-29T10:42:41.610Z,18.54
2024-02-29T10:43:41.589Z,18.40
2024-02-29T10:44:41.580Z,18.29
2024-02-29T10:45:41.613Z,18.97
2024-02-29T10:46:41.585Z,18.94
2024-02-29T10:47:41.600Z,19.54
2024-02-29T10:48:41.577Z,19.87
2024-02-29T10:49:41.553Z,18.77
2024-02-29T10:50:41.522Z,17.20
2024-02-29T10:51:41.548Z,18.03
2024-02-29T10:52:41.532Z,18.67
2024-02-29T10:53:41.537Z,17.87
2024-02-29T10:54:41.542Z,16.15
2024-02-29T10:55:41.540Z,16.11
2024-02-29T10:56:43.239Z,15.02
2024-02-29T10:57:42.513Z,16.59
2024-02-29T10:58:41.501Z,17.59
2024-02-29T10:59:41.471Z,18.46
2024-02-29T11:00:41.541Z,18.82
2024-02-29T11:01:41.543Z,19.11
2024-02-29T11:02:41.469Z,20.08
2024-02-29T11:03:41.493Z,20.84
2024-02-29T11:04:42.211Z,21.53
2024-02-29T11:05:41.454Z,21.67
2024-02-29T11:06:41.463Z,21.29
2024-02-29T11:07:41.503Z,20.65
2024-02-29T11:08:41.650Z,19.18
2024-02-29T11:09:41.542Z,19.63
2024-02-29T11:10:41.470Z,19.55
2024-02-29T11:11:41.412Z,20.28
2024-02-29T11:12:41.533Z,20.27
2024-02-29T11:13:41.388Z,19.86
2024-02-29T11:14:41.409Z,20.05
2024-02-29T11:15:41.578Z,20.66
2024-02-29T11:16:41.389Z,19.24
2024-02-29T11:17:42.412Z,18.67
2024-02-29T11:18:41.403Z,18.83
2024-02-29T11:19:47.988Z,18.58
2024-02-29T11:20:43.359Z,17.74
2024-02-29T11:21:41.409Z,18.57
2024-02-29T11:22:41.340Z,17.53
2024-02-29T11:23:41.332Z,17.85
2024-02-29T11:24:41.580Z,18.24
2024-02-29T11:25:41.432Z,18.57
2024-02-29T11:26:41.297Z,19.47
2024-02-29T11:27:41.333Z,20.80
2024-02-29T11:28:41.292Z,20.24
2024-02-29T11:29:41.344Z,20.20
2024-02-29T11:30:41.341Z,19.80
2024-02-29T11:31:41.259Z,19.97
2024-02-29T11:32:41.260Z,20.41
2024-02-29T11:33:41.299Z,20.71
2024-02-29T11:34:41.250Z,21.42
2024-02-29T11:35:41.299Z,20.53
2024-02-29T11:36:41.287Z,20.72
2024-02-29T11:37:41.303Z,20.79
2024-02-29T11:38:41.296Z,21.27
2024-02-29T11:39:41.252Z,22.23
2024-02-29T11:40:41.236Z,22.89
2024-02-29T11:41:41.301Z,22.28
2024-02-29T11:42:41.240Z,22.01
2024-02-29T11:43:41.206Z,21.64
2024-02-29T11:44:41.195Z,20.27
2024-02-29T11:45:41.212Z,20.34
2024-02-29T11:46:41.173Z,20.46
2024-02-29T11:47:41.289Z,19.72
2024-02-29T11:48:41.208Z,20.93
2024-02-29T11:49:41.177Z,20.96
2024-02-29T11:50:41.173Z,20.16
2024-02-29T11:51:41.177Z,19.72
2024-02-29T11:52:41.153Z,20.54
2024-02-29T11:53:41.160Z,20.58
2024-02-29T11:54:41.162Z,20.81
2024-02-29T11:55:41.159Z,21.66
2024-02-29T11:56:41.158Z,21.64
2024-02-29T11:57:42.154Z,22.54
2024-02-29T11:58:41.128Z,23.27
2024-02-29T11:59:41.117Z,22.80
2024-02-29T12:00:41.188Z,23.34
2024-02-29T12:01:41.183Z,23.38
2024-02-29T12:02:41.097Z,22.96
2024-02-29T12:03:41.258Z,22.99
2024-02-29T12:04:41.075Z,22.59
2024-02-29T12:05:41.107Z,22.54
2024-02-29T12:06:41.172Z,21.99
2024-02-29T12:07:41.073Z,21.88
2024-02-29T12:08:41.158Z,21.64
2024-02-29T12:09:41.082Z,22.22
2024-02-29T12:10:49.256Z,22.39
2024-02-29T12:11:42.087Z,22.71
2024-02-29T12:12:41.174Z,21.51
2024-02-29T12:13:41.051Z,21.67
2024-02-29T12:14:41.045Z,21.69
2024-02-29T12:15:41.191Z,21.45
2024-02-29T12:16:41.044Z,21.34
2024-02-29T12:17:41.066Z,21.75
2024-02-29T12:18:41.040Z,21.60
2024-02-29T12:19:41.001Z,20.09
2024-02-29T12:20:42.002Z,20.58
2024-02-29T12:21:41.037Z,21.27
2024-02-29T12:22:41.054Z,21.13
2024-02-29T12:23:40.993Z,21.97
2024-02-29T12:24:41.118Z,21.34
2024-02-29T12:25:40.993Z,19.91
2024-02-29T12:26:40.981Z,19.80
2024-02-29T12:27:42.956Z,19.93
2024-02-29T12:28:40.953Z,19.86
2024-02-29T12:29:40.968Z,20.87
2024-02-29T12:30:40.975Z,21.66
2024-02-29T12:31:40.935Z,21.20
2024-02-29T12:32:41.037Z,20.66
2024-02-29T12:33:41.204Z,21.09
2024-02-29T12:34:41.021Z,20.83
2024-02-29T12:35:40.923Z,21.41
2024-02-29T12:36:40.944Z,21.74
2024-02-29T12:37:40.929Z,21.66
2024-02-29T12:38:40.987Z,21.54
2024-02-29T12:39:40.926Z,21.64
2024-02-29T12:40:41.089Z,21.67
2024-02-29T12:41:40.869Z,22.67
2024-02-29T12:42:40.913Z,21.88
2024-02-29T12:43:40.892Z,21.57
2024-02-29T12:44:40.905Z,20.81
2024-02-29T12:45:40.893Z,21.53
2024-02-29T12:46:41.847Z,22.46
2024-02-29T12:47:40.893Z,22.80
2024-02-29T12:48:40.950Z,23.53
2024-02-29T12:49:40.883Z,24.17
2024-02-29T12:50:40.852Z,23.11
2024-02-29T12:51:40.851Z,23.46
2024-02-29T12:52:40.917Z,22.84
2024-02-29T12:53:40.852Z,23.14
2024-02-29T12:54:40.930Z,23.15
2024-02-29T12:55:40.893Z,22.74
2024-02-29T12:56:40.936Z,22.78
2024-02-29T12:57:40.956Z,21.88
2024-02-29T12:58:40.852Z,21.32
2024-02-29T12:59:40.867Z,21.66
2024-02-29T13:00:40.910Z,21.82
2024-02-29T13:01:40.885Z,21.74
2024-02-29T13:02:40.826Z,21.99
2024-02-29T13:03:40.829Z,22.74
2024-02-29T13:04:40.819Z,22.77
2024-02-29T13:05:40.801Z,22.02
2024-02-29T13:06:40.940Z,21.35
2024-02-29T13:07:40.787Z,20.05
2024-02-29T13:08:40.913Z,20.35